sensor_id;sensor_type;location;lat;lon;timestamp;P1;durP1;ratioP1;P2;durP2;ratioP2
72797;SDS011;61084;55.816;37.036;2023-09-18T00:03:09;12.63;;;6.68;;
72797;SDS011;61084;55.816;37.036;2023-09-18T00:05:35;13.60;;;7.15;;
72797;SDS011;61084;55.816;37.036;2023-09-18T00:08:01;15.35;;;7.72;;
72797;SDS011;61084;55.816;37.036;2023-09-18T00:10:30;10.77;;;7.50;;
72797;SDS011;61084;55.816;37.036;2023-09-18T00:12:56;15.45;;;6.80;;
72797;SDS011;61084;55.816;37.036;2023-09-18T00:15:22;10.05;;;6.20;;
72797;SDS011;61084;55.816;37.036;2023-09-18T00:17:49;14.07;;;7.05;;
72797;SDS011;61084;55.816;37.036;2023-09-18T00:20:15;10.93;;;6.60;;
72797;SDS011;61084;55.816;37.036;2023-09-18T00:22:43;10.93;;;6.88;;
72797;SDS011;61084;55.816;37.036;2023-09-18T00:25:09;9.63;;;5.93;;
72797;SDS011;61084;55.816;37.036;2023-09-18T00:27:35;10.68;;;6.93;;
72797;SDS011;61084;55.816;37.036;2023-09-18T00:30:03;14.85;;;6.65;;
72797;SDS011;61084;55.816;37.036;2023-09-18T00:32:31;12.95;;;7.10;;
72797;SDS011;61084;55.816;37.036;2023-09-18T00:34:57;13.45;;;6.22;;
72797;SDS011;61084;55.816;37.036;2023-09-18T00:37:23;10.13;;;6.57;;
72797;SDS011;61084;55.816;37.036;2023-09-18T00:39:51;11.13;;;6.60;;
72797;SDS011;61084;55.816;37.036;2023-09-18T00:42:17;14.23;;;6.95;;
72797;SDS011;61084;55.816;37.036;2023-09-18T00:44:44;13.88;;;6.60;;
72797;SDS011;61084;55.816;37.036;2023-09-18T00:47:10;13.60;;;6.20;;
72797;SDS011;61084;55.816;37.036;2023-09-18T00:49:39;10.45;;;6.30;;
72797;SDS011;61084;55.816;37.036;2023-09-18T00:52:08;13.65;;;6.10;;
72797;SDS011;61084;55.816;37.036;2023-09-18T00:54:35;10.40;;;6.88;;
72797;SDS011;61084;55.816;37.036;2023-09-18T00:57:04;12.20;;;6.05;;
72797;SDS011;61084;55.816;37.036;2023-09-18T00:59:30;12.50;;;5.90;;
72797;SDS011;61084;55.816;37.036;2023-09-18T01:01:57;9.52;;;6.28;;
72797;SDS011;61084;55.816;37.036;2023-09-18T01:04:22;9.98;;;5.90;;
72797;SDS011;61084;55.816;37.036;2023-09-18T01:06:52;12.45;;;6.32;;
72797;SDS011;61084;55.816;37.036;2023-09-18T01:09:18;12.85;;;8.00;;
72797;SDS011;61084;55.816;37.036;2023-09-18T01:14:33;9.82;;;6.20;;
72797;SDS011;61084;55.816;37.036;2023-09-18T01:17:06;11.00;;;5.65;;
72797;SDS011;61084;55.816;37.036;2023-09-18T01:19:36;7.68;;;5.32;;
72797;SDS011;61084;55.816;37.036;2023-09-18T01:22:16;12.43;;;5.65;;
72797;SDS011;61084;55.816;37.036;2023-09-18T01:24:44;10.23;;;5.00;;
72797;SDS011;61084;55.816;37.036;2023-09-18T01:27:11;10.02;;;6.00;;
72797;SDS011;61084;55.816;37.036;2023-09-18T01:29:40;9.30;;;5.28;;
72797;SDS011;61084;55.816;37.036;2023-09-18T01:32:06;8.90;;;5.07;;
72797;SDS011;61084;55.816;37.036;2023-09-18T01:34:33;9.25;;;5.72;;
72797;SDS011;61084;55.816;37.036;2023-09-18T01:37:02;8.77;;;5.03;;
72797;SDS011;61084;55.816;37.036;2023-09-18T01:39:30;9.75;;;5.88;;
72797;SDS011;61084;55.816;37.036;2023-09-18T01:41:58;8.35;;;5.13;;
72797;SDS011;61084;55.816;37.036;2023-09-18T01:44:27;7.65;;;5.10;;
72797;SDS011;61084;55.816;37.036;2023-09-18T01:46:54;8.23;;;5.25;;
72797;SDS011;61084;55.816;37.036;2023-09-18T01:49:26;9.98;;;5.88;;
72797;SDS011;61084;55.816;37.036;2023-09-18T01:54:23;7.90;;;4.85;;
72797;SDS011;61084;55.816;37.036;2023-09-18T01:56:49;8.85;;;5.78;;
72797;SDS011;61084;55.816;37.036;2023-09-18T01:59:15;10.40;;;4.72;;
72797;SDS011;61084;55.816;37.036;2023-09-18T02:01:41;8.73;;;5.03;;
72797;SDS011;61084;55.816;37.036;2023-09-18T02:04:07;17.98;;;5.75;;
72797;SDS011;61084;55.816;37.036;2023-09-18T02:06:32;11.55;;;5.22;;
72797;SDS011;61084;55.816;37.036;2023-09-18T02:08:58;8.23;;;5.35;;
72797;SDS011;61084;55.816;37.036;2023-09-18T02:11:24;14.02;;;5.35;;
72797;SDS011;61084;55.816;37.036;2023-09-18T02:13:50;12.05;;;4.97;;
72797;SDS011;61084;55.816;37.036;2023-09-18T02:16:16;9.93;;;4.82;;
72797;SDS011;61084;55.816;37.036;2023-09-18T02:18:42;7.10;;;4.75;;
72797;SDS011;61084;55.816;37.036;2023-09-18T02:21:09;7.53;;;4.85;;
72797;SDS011;61084;55.816;37.036;2023-09-18T02:23:35;8.63;;;4.65;;
72797;SDS011;61084;55.816;37.036;2023-09-18T02:26:01;7.43;;;5.10;;
72797;SDS011;61084;55.816;37.036;2023-09-18T02:28:27;5.55;;;3.88;;
72797;SDS011;61084;55.816;37.036;2023-09-18T02:30:53;7.25;;;4.63;;
72797;SDS011;61084;55.816;37.036;2023-09-18T02:33:19;8.93;;;4.43;;
72797;SDS011;61084;55.816;37.036;2023-09-18T02:35:45;10.00;;;4.70;;
72797;SDS011;61084;55.816;37.036;2023-09-18T02:38:10;7.78;;;4.70;;
72797;SDS011;61084;55.816;37.036;2023-09-18T02:40:36;8.05;;;4.88;;
72797;SDS011;61084;55.816;37.036;2023-09-18T02:43:02;7.50;;;4.88;;
72797;SDS011;61084;55.816;37.036;2023-09-18T02:45:28;9.40;;;5.68;;
72797;SDS011;61084;55.816;37.036;2023-09-18T02:47:54;8.75;;;5.32;;
72797;SDS011;61084;55.816;37.036;2023-09-18T02:50:20;7.20;;;4.90;;
72797;SDS011;61084;55.816;37.036;2023-09-18T02:52:45;5.75;;;4.20;;
72797;SDS011;61084;55.816;37.036;2023-09-18T02:55:11;6.50;;;4.38;;
72797;SDS011;61084;55.816;37.036;2023-09-18T02:57:39;11.18;;;4.95;;
72797;SDS011;61084;55.816;37.036;2023-09-18T03:00:05;9.68;;;5.03;;
72797;SDS011;61084;55.816;37.036;2023-09-18T03:02:31;9.00;;;4.53;;
72797;SDS011;61084;55.816;37.036;2023-09-18T03:04:57;9.50;;;4.88;;
72797;SDS011;61084;55.816;37.036;2023-09-18T03:07:23;7.28;;;3.92;;
72797;SDS011;61084;55.816;37.036;2023-09-18T03:09:49;9.13;;;5.07;;
72797;SDS011;61084;55.816;37.036;2023-09-18T03:12:15;9.95;;;4.97;;
72797;SDS011;61084;55.816;37.036;2023-09-18T03:14:41;8.20;;;5.10;;
72797;SDS011;61084;55.816;37.036;2023-09-18T03:17:08;7.28;;;4.72;;
72797;SDS011;61084;55.816;37.036;2023-09-18T03:19:34;7.35;;;4.78;;
72797;SDS011;61084;55.816;37.036;2023-09-18T03:22:00;7.05;;;4.65;;
72797;SDS011;61084;55.816;37.036;2023-09-18T03:26:53;10.48;;;4.40;;
72797;SDS011;61084;55.816;37.036;2023-09-18T03:29:19;6.35;;;4.00;;
72797;SDS011;61084;55.816;37.036;2023-09-18T03:31:45;7.28;;;4.38;;
72797;SDS011;61084;55.816;37.036;2023-09-18T03:34:11;7.25;;;4.80;;
72797;SDS011;61084;55.816;37.036;2023-09-18T03:36:36;7.60;;;5.10;;
72797;SDS011;61084;55.816;37.036;2023-09-18T03:39:04;7.00;;;4.57;;
72797;SDS011;61084;55.816;37.036;2023-09-18T03:41:31;6.57;;;4.15;;
72797;SDS011;61084;55.816;37.036;2023-09-18T03:44:00;9.07;;;4.53;;
72797;SDS011;61084;55.816;37.036;2023-09-18T03:46:26;9.35;;;5.38;;
72797;SDS011;61084;55.816;37.036;2023-09-18T03:48:52;10.48;;;6.10;;
72797;SDS011;61084;55.816;37.036;2023-09-18T03:51:18;8.05;;;5.60;;
72797;SDS011;61084;55.816;37.036;2023-09-18T03:53:46;8.88;;;5.38;;
72797;SDS011;61084;55.816;37.036;2023-09-18T03:56:13;12.63;;;5.65;;
72797;SDS011;61084;55.816;37.036;2023-09-18T03:58:40;9.32;;;5.28;;
72797;SDS011;61084;55.816;37.036;2023-09-18T04:01:07;7.72;;;4.70;;
72797;SDS011;61084;55.816;37.036;2023-09-18T04:03:33;7.63;;;5.00;;
72797;SDS011;61084;55.816;37.036;2023-09-18T04:05:59;6.75;;;4.75;;
72797;SDS011;61084;55.816;37.036;2023-09-18T04:08:25;8.40;;;4.78;;
72797;SDS011;61084;55.816;37.036;2023-09-18T04:10:51;7.43;;;4.55;;
72797;SDS011;61084;55.816;37.036;2023-09-18T04:13:21;10.32;;;5.72;;
72797;SDS011;61084;55.816;37.036;2023-09-18T04:15:47;12.07;;;5.60;;
72797;SDS011;61084;55.816;37.036;2023-09-18T04:18:13;7.10;;;5.35;;
72797;SDS011;61084;55.816;37.036;2023-09-18T04:20:39;6.32;;;4.07;;
72797;SDS011;61084;55.816;37.036;2023-09-18T04:23:21;8.50;;;4.60;;
72797;SDS011;61084;55.816;37.036;2023-09-18T04:25:51;5.50;;;4.00;;
72797;SDS011;61084;55.816;37.036;2023-09-18T04:28:18;7.53;;;4.85;;
72797;SDS011;61084;55.816;37.036;2023-09-18T04:30:46;9.07;;;4.63;;
72797;SDS011;61084;55.816;37.036;2023-09-18T04:33:15;7.78;;;4.68;;
72797;SDS011;61084;55.816;37.036;2023-09-18T04:35:43;12.45;;;4.95;;
72797;SDS011;61084;55.816;37.036;2023-09-18T04:38:10;7.82;;;4.43;;
72797;SDS011;61084;55.816;37.036;2023-09-18T04:43:02;6.97;;;4.50;;
72797;SDS011;61084;55.816;37.036;2023-09-18T04:45:32;6.55;;;4.40;;
72797;SDS011;61084;55.816;37.036;2023-09-18T04:47:58;8.73;;;4.15;;
72797;SDS011;61084;55.816;37.036;2023-09-18T04:50:24;7.47;;;4.90;;
72797;SDS011;61084;55.816;37.036;2023-09-18T04:52:52;8.18;;;4.82;;
72797;SDS011;61084;55.816;37.036;2023-09-18T04:55:20;6.25;;;4.22;;
72797;SDS011;61084;55.816;37.036;2023-09-18T04:57:46;8.23;;;4.20;;
72797;SDS011;61084;55.816;37.036;2023-09-18T05:00:13;8.48;;;4.60;;
72797;SDS011;61084;55.816;37.036;2023-09-18T05:05:06;7.18;;;4.70;;
72797;SDS011;61084;55.816;37.036;2023-09-18T05:07:34;7.68;;;4.90;;
72797;SDS011;61084;55.816;37.036;2023-09-18T05:10:00;7.57;;;4.80;;
72797;SDS011;61084;55.816;37.036;2023-09-18T05:12:27;6.30;;;4.00;;
72797;SDS011;61084;55.816;37.036;2023-09-18T05:14:53;5.93;;;4.45;;
72797;SDS011;61084;55.816;37.036;2023-09-18T05:17:19;6.10;;;4.60;;
72797;SDS011;61084;55.816;37.036;2023-09-18T05:19:44;7.97;;;4.95;;
72797;SDS011;61084;55.816;37.036;2023-09-18T05:22:10;8.10;;;4.55;;
72797;SDS011;61084;55.816;37.036;2023-09-18T05:24:40;6.85;;;4.47;;
72797;SDS011;61084;55.816;37.036;2023-09-18T05:27:05;11.43;;;4.72;;
72797;SDS011;61084;55.816;37.036;2023-09-18T05:29:33;8.73;;;4.45;;
72797;SDS011;61084;55.816;37.036;2023-09-18T05:32:00;7.57;;;4.57;;
72797;SDS011;61084;55.816;37.036;2023-09-18T05:34:26;8.02;;;4.70;;
72797;SDS011;61084;55.816;37.036;2023-09-18T05:36:52;6.63;;;4.70;;
72797;SDS011;61084;55.816;37.036;2023-09-18T05:39:18;7.43;;;4.47;;
72797;SDS011;61084;55.816;37.036;2023-09-18T05:41:44;9.10;;;3.97;;
72797;SDS011;61084;55.816;37.036;2023-09-18T05:44:09;7.35;;;4.60;;
72797;SDS011;61084;55.816;37.036;2023-09-18T05:46:35;6.38;;;4.15;;
72797;SDS011;61084;55.816;37.036;2023-09-18T05:49:02;6.85;;;3.78;;
72797;SDS011;61084;55.816;37.036;2023-09-18T05:51:29;10.68;;;5.05;;
72797;SDS011;61084;55.816;37.036;2023-09-18T05:53:55;6.68;;;4.22;;
72797;SDS011;61084;55.816;37.036;2023-09-18T05:56:21;6.95;;;4.90;;
72797;SDS011;61084;55.816;37.036;2023-09-18T05:58:49;5.07;;;3.65;;
72797;SDS011;61084;55.816;37.036;2023-09-18T06:01:15;9.40;;;3.65;;
72797;SDS011;61084;55.816;37.036;2023-09-18T06:03:41;7.18;;;4.60;;
72797;SDS011;61084;55.816;37.036;2023-09-18T06:06:07;6.75;;;3.80;;
72797;SDS011;61084;55.816;37.036;2023-09-18T06:08:36;7.10;;;3.85;;
72797;SDS011;61084;55.816;37.036;2023-09-18T06:11:01;8.82;;;4.20;;
72797;SDS011;61084;55.816;37.036;2023-09-18T06:13:27;6.40;;;4.43;;
72797;SDS011;61084;55.816;37.036;2023-09-18T06:15:53;9.15;;;3.92;;
72797;SDS011;61084;55.816;37.036;2023-09-18T06:18:21;8.43;;;4.47;;
72797;SDS011;61084;55.816;37.036;2023-09-18T06:20:48;6.47;;;3.95;;
72797;SDS011;61084;55.816;37.036;2023-09-18T06:23:14;7.45;;;5.07;;
72797;SDS011;61084;55.816;37.036;2023-09-18T06:25:40;8.45;;;4.35;;
72797;SDS011;61084;55.816;37.036;2023-09-18T06:28:06;5.25;;;3.72;;
72797;SDS011;61084;55.816;37.036;2023-09-18T06:30:32;6.18;;;4.45;;
72797;SDS011;61084;55.816;37.036;2023-09-18T06:33:00;7.55;;;4.53;;
72797;SDS011;61084;55.816;37.036;2023-09-18T06:35:26;6.20;;;4.15;;
72797;SDS011;61084;55.816;37.036;2023-09-18T06:37:52;7.07;;;4.70;;
72797;SDS011;61084;55.816;37.036;2023-09-18T06:40:20;7.80;;;3.95;;
72797;SDS011;61084;55.816;37.036;2023-09-18T06:42:46;6.35;;;3.70;;
72797;SDS011;61084;55.816;37.036;2023-09-18T06:45:12;6.15;;;3.90;;
72797;SDS011;61084;55.816;37.036;2023-09-18T06:47:39;6.50;;;4.05;;
72797;SDS011;61084;55.816;37.036;2023-09-18T06:52:31;7.95;;;5.13;;
72797;SDS011;61084;55.816;37.036;2023-09-18T06:54:57;5.60;;;4.18;;
72797;SDS011;61084;55.816;37.036;2023-09-18T06:57:24;7.13;;;4.60;;
72797;SDS011;61084;55.816;37.036;2023-09-18T06:59:50;6.55;;;4.00;;
72797;SDS011;61084;55.816;37.036;2023-09-18T07:02:16;5.85;;;4.03;;
72797;SDS011;61084;55.816;37.036;2023-09-18T07:07:12;7.18;;;4.55;;
72797;SDS011;61084;55.816;37.036;2023-09-18T07:12:05;7.32;;;4.90;;
72797;SDS011;61084;55.816;37.036;2023-09-18T07:14:31;8.10;;;4.75;;
72797;SDS011;61084;55.816;37.036;2023-09-18T07:16:57;9.02;;;4.30;;
72797;SDS011;61084;55.816;37.036;2023-09-18T07:19:23;7.72;;;4.65;;
72797;SDS011;61084;55.816;37.036;2023-09-18T07:21:49;9.40;;;4.95;;
72797;SDS011;61084;55.816;37.036;2023-09-18T07:24:15;8.85;;;4.90;;
72797;SDS011;61084;55.816;37.036;2023-09-18T07:26:46;8.18;;;4.90;;
72797;SDS011;61084;55.816;37.036;2023-09-18T07:29:14;9.10;;;4.95;;
72797;SDS011;61084;55.816;37.036;2023-09-18T07:31:44;11.07;;;4.93;;
72797;SDS011;61084;55.816;37.036;2023-09-18T07:34:10;5.63;;;4.25;;
72797;SDS011;61084;55.816;37.036;2023-09-18T07:36:36;8.15;;;4.85;;
72797;SDS011;61084;55.816;37.036;2023-09-18T07:39:03;8.30;;;5.13;;
72797;SDS011;61084;55.816;37.036;2023-09-18T07:41:31;11.95;;;5.10;;
72797;SDS011;61084;55.816;37.036;2023-09-18T07:43:57;8.60;;;4.88;;
72797;SDS011;61084;55.816;37.036;2023-09-18T07:46:24;8.43;;;4.78;;
72797;SDS011;61084;55.816;37.036;2023-09-18T07:48:50;6.70;;;4.20;;
72797;SDS011;61084;55.816;37.036;2023-09-18T07:51:16;8.48;;;5.22;;
72797;SDS011;61084;55.816;37.036;2023-09-18T07:53:42;8.93;;;4.95;;
72797;SDS011;61084;55.816;37.036;2023-09-18T07:56:08;7.13;;;4.97;;
72797;SDS011;61084;55.816;37.036;2023-09-18T07:58:34;7.97;;;4.93;;
72797;SDS011;61084;55.816;37.036;2023-09-18T08:01:04;9.80;;;4.93;;
72797;SDS011;61084;55.816;37.036;2023-09-18T08:03:35;8.93;;;4.78;;
72797;SDS011;61084;55.816;37.036;2023-09-18T08:06:01;11.57;;;4.70;;
72797;SDS011;61084;55.816;37.036;2023-09-18T08:08:29;11.25;;;5.22;;
72797;SDS011;61084;55.816;37.036;2023-09-18T08:10:58;9.15;;;5.28;;
72797;SDS011;61084;55.816;37.036;2023-09-18T08:13:24;11.30;;;5.82;;
72797;SDS011;61084;55.816;37.036;2023-09-18T08:15:50;8.75;;;5.63;;
72797;SDS011;61084;55.816;37.036;2023-09-18T08:18:16;10.10;;;6.25;;
72797;SDS011;61084;55.816;37.036;2023-09-18T08:20:42;9.88;;;5.93;;
72797;SDS011;61084;55.816;37.036;2023-09-18T08:23:09;9.98;;;5.30;;
72797;SDS011;61084;55.816;37.036;2023-09-18T08:25:36;8.43;;;5.57;;
72797;SDS011;61084;55.816;37.036;2023-09-18T08:28:02;9.25;;;6.05;;
72797;SDS011;61084;55.816;37.036;2023-09-18T08:30:30;10.10;;;6.20;;
72797;SDS011;61084;55.816;37.036;2023-09-18T08:32:56;9.45;;;5.30;;
72797;SDS011;61084;55.816;37.036;2023-09-18T08:35:22;9.07;;;5.57;;
72797;SDS011;61084;55.816;37.036;2023-09-18T08:37:48;7.68;;;5.85;;
72797;SDS011;61084;55.816;37.036;2023-09-18T08:40:14;8.85;;;5.60;;
72797;SDS011;61084;55.816;37.036;2023-09-18T08:42:44;6.63;;;4.68;;
72797;SDS011;61084;55.816;37.036;2023-09-18T08:45:14;10.48;;;5.82;;
72797;SDS011;61084;55.816;37.036;2023-09-18T08:47:46;12.65;;;6.25;;
72797;SDS011;61084;55.816;37.036;2023-09-18T08:52:40;9.98;;;6.20;;
72797;SDS011;61084;55.816;37.036;2023-09-18T08:55:11;12.05;;;7.32;;
72797;SDS011;61084;55.816;37.036;2023-09-18T08:57:39;12.88;;;5.82;;
72797;SDS011;61084;55.816;37.036;2023-09-18T09:00:10;17.42;;;7.22;;
72797;SDS011;61084;55.816;37.036;2023-09-18T09:02:45;8.85;;;6.78;;
72797;SDS011;61084;55.816;37.036;2023-09-18T09:05:14;11.38;;;7.30;;
72797;SDS011;61084;55.816;37.036;2023-09-18T09:07:40;12.68;;;7.05;;
72797;SDS011;61084;55.816;37.036;2023-09-18T09:10:06;10.05;;;7.10;;
72797;SDS011;61084;55.816;37.036;2023-09-18T09:12:48;9.27;;;5.93;;
72797;SDS011;61084;55.816;37.036;2023-09-18T09:15:17;9.30;;;5.88;;
72797;SDS011;61084;55.816;37.036;2023-09-18T09:17:43;9.90;;;5.90;;
72797;SDS011;61084;55.816;37.036;2023-09-18T09:20:12;11.35;;;6.63;;
72797;SDS011;61084;55.816;37.036;2023-09-18T09:22:40;10.32;;;6.05;;
72797;SDS011;61084;55.816;37.036;2023-09-18T09:25:28;10.05;;;5.80;;
72797;SDS011;61084;55.816;37.036;2023-09-18T09:27:57;8.93;;;7.03;;
72797;SDS011;61084;55.816;37.036;2023-09-18T09:30:32;13.63;;;6.57;;
72797;SDS011;61084;55.816;37.036;2023-09-18T09:33:03;11.32;;;6.20;;
72797;SDS011;61084;55.816;37.036;2023-09-18T09:35:31;13.20;;;6.68;;
72797;SDS011;61084;55.816;37.036;2023-09-18T09:38:09;10.65;;;6.93;;
72797;SDS011;61084;55.816;37.036;2023-09-18T09:40:40;10.48;;;6.40;;
72797;SDS011;61084;55.816;37.036;2023-09-18T09:43:07;10.52;;;6.25;;
72797;SDS011;61084;55.816;37.036;2023-09-18T09:45:35;10.50;;;6.10;;
72797;SDS011;61084;55.816;37.036;2023-09-18T09:48:01;8.27;;;5.93;;
72797;SDS011;61084;55.816;37.036;2023-09-18T09:50:32;9.65;;;6.20;;
72797;SDS011;61084;55.816;37.036;2023-09-18T09:52:59;7.13;;;5.20;;
72797;SDS011;61084;55.816;37.036;2023-09-18T09:55:26;9.63;;;5.93;;
72797;SDS011;61084;55.816;37.036;2023-09-18T09:57:57;8.13;;;4.88;;
72797;SDS011;61084;55.816;37.036;2023-09-18T10:00:39;9.93;;;5.57;;
72797;SDS011;61084;55.816;37.036;2023-09-18T10:03:10;8.05;;;5.60;;
72797;SDS011;61084;55.816;37.036;2023-09-18T10:05:44;8.18;;;5.45;;
72797;SDS011;61084;55.816;37.036;2023-09-18T10:10:53;6.88;;;4.82;;
72797;SDS011;61084;55.816;37.036;2023-09-18T10:13:30;9.60;;;4.68;;
72797;SDS011;61084;55.816;37.036;2023-09-18T10:16:04;5.40;;;4.25;;
72797;SDS011;61084;55.816;37.036;2023-09-18T10:18:37;5.57;;;3.97;;
72797;SDS011;61084;55.816;37.036;2023-09-18T10:21:26;5.63;;;3.80;;
72797;SDS011;61084;55.816;37.036;2023-09-18T10:24:21;6.50;;;4.22;;
72797;SDS011;61084;55.816;37.036;2023-09-18T10:26:56;6.05;;;3.47;;
72797;SDS011;61084;55.816;37.036;2023-09-18T10:29:27;5.10;;;3.92;;
72797;SDS011;61084;55.816;37.036;2023-09-18T10:31:55;4.55;;;3.40;;
72797;SDS011;61084;55.816;37.036;2023-09-18T10:34:25;5.55;;;4.22;;
72797;SDS011;61084;55.816;37.036;2023-09-18T10:36:52;7.38;;;3.58;;
72797;SDS011;61084;55.816;37.036;2023-09-18T10:39:20;3.35;;;2.97;;
72797;SDS011;61084;55.816;37.036;2023-09-18T10:41:51;4.85;;;3.60;;
72797;SDS011;61084;55.816;37.036;2023-09-18T10:44:18;6.63;;;4.20;;
72797;SDS011;61084;55.816;37.036;2023-09-18T10:46:48;4.50;;;3.63;;
72797;SDS011;61084;55.816;37.036;2023-09-18T10:49:17;3.88;;;3.30;;
72797;SDS011;61084;55.816;37.036;2023-09-18T10:51:53;4.22;;;3.40;;
72797;SDS011;61084;55.816;37.036;2023-09-18T10:54:20;5.13;;;3.17;;
72797;SDS011;61084;55.816;37.036;2023-09-18T10:56:49;3.88;;;3.10;;
72797;SDS011;61084;55.816;37.036;2023-09-18T10:59:16;4.50;;;3.03;;
72797;SDS011;61084;55.816;37.036;2023-09-18T11:01:43;4.10;;;2.45;;
72797;SDS011;61084;55.816;37.036;2023-09-18T11:04:10;3.70;;;2.85;;
72797;SDS011;61084;55.816;37.036;2023-09-18T11:09:26;6.65;;;2.67;;
72797;SDS011;61084;55.816;37.036;2023-09-18T11:11:54;6.75;;;3.63;;
72797;SDS011;61084;55.816;37.036;2023-09-18T11:14:47;4.40;;;2.58;;
72797;SDS011;61084;55.816;37.036;2023-09-18T11:20:03;4.18;;;2.75;;
72797;SDS011;61084;55.816;37.036;2023-09-18T11:22:47;5.15;;;2.67;;
72797;SDS011;61084;55.816;37.036;2023-09-18T11:28:14;4.55;;;2.55;;
72797;SDS011;61084;55.816;37.036;2023-09-18T11:30:49;4.00;;;2.47;;
72797;SDS011;61084;55.816;37.036;2023-09-18T11:33:15;3.17;;;2.47;;
72797;SDS011;61084;55.816;37.036;2023-09-18T11:36:09;3.17;;;2.33;;
72797;SDS011;61084;55.816;37.036;2023-09-18T11:38:56;3.85;;;2.50;;
72797;SDS011;61084;55.816;37.036;2023-09-18T11:41:28;2.60;;;2.20;;
72797;SDS011;61084;55.816;37.036;2023-09-18T11:44:56;5.70;;;2.38;;
72797;SDS011;61084;55.816;37.036;2023-09-18T11:46:57;3.08;;;2.50;;
72797;SDS011;61084;55.816;37.036;2023-09-18T11:49:28;3.22;;;2.17;;
72797;SDS011;61084;55.816;37.036;2023-09-18T11:52:00;3.92;;;2.75;;
72797;SDS011;61084;55.816;37.036;2023-09-18T11:54:27;4.97;;;3.03;;
72797;SDS011;61084;55.816;37.036;2023-09-18T11:56:54;6.22;;;3.50;;
72797;SDS011;61084;55.816;37.036;2023-09-18T11:59:33;4.28;;;3.08;;
72797;SDS011;61084;55.816;37.036;2023-09-18T12:02:17;4.10;;;2.95;;
72797;SDS011;61084;55.816;37.036;2023-09-18T12:04:54;2.83;;;2.10;;
72797;SDS011;61084;55.816;37.036;2023-09-18T12:07:21;4.00;;;2.42;;
72797;SDS011;61084;55.816;37.036;2023-09-18T12:09:47;2.90;;;2.38;;
72797;SDS011;61084;55.816;37.036;2023-09-18T12:12:13;3.50;;;2.70;;
72797;SDS011;61084;55.816;37.036;2023-09-18T12:14:40;5.07;;;2.90;;
72797;SDS011;61084;55.816;37.036;2023-09-18T12:17:08;4.47;;;2.60;;
72797;SDS011;61084;55.816;37.036;2023-09-18T12:22:01;7.10;;;3.03;;
72797;SDS011;61084;55.816;37.036;2023-09-18T12:24:27;4.43;;;2.85;;
72797;SDS011;61084;55.816;37.036;2023-09-18T12:26:54;4.68;;;3.38;;
72797;SDS011;61084;55.816;37.036;2023-09-18T12:29:23;4.30;;;2.78;;
72797;SDS011;61084;55.816;37.036;2023-09-18T12:31:49;4.55;;;3.00;;
72797;SDS011;61084;55.816;37.036;2023-09-18T12:34:16;5.85;;;2.88;;
72797;SDS011;61084;55.816;37.036;2023-09-18T12:36:44;4.28;;;2.33;;
72797;SDS011;61084;55.816;37.036;2023-09-18T12:39:14;4.13;;;2.53;;
72797;SDS011;61084;55.816;37.036;2023-09-18T12:41:44;6.50;;;3.00;;
72797;SDS011;61084;55.816;37.036;2023-09-18T12:44:11;3.53;;;2.70;;
72797;SDS011;61084;55.816;37.036;2023-09-18T12:46:37;4.68;;;3.50;;
72797;SDS011;61084;55.816;37.036;2023-09-18T12:51:42;5.25;;;3.13;;
72797;SDS011;61084;55.816;37.036;2023-09-18T12:54:10;4.13;;;2.80;;
72797;SDS011;61084;55.816;37.036;2023-09-18T12:56:40;5.07;;;3.25;;
72797;SDS011;61084;55.816;37.036;2023-09-18T12:59:10;4.50;;;3.38;;
72797;SDS011;61084;55.816;37.036;2023-09-18T13:01:36;5.30;;;3.22;;
72797;SDS011;61084;55.816;37.036;2023-09-18T13:04:03;3.97;;;2.83;;
72797;SDS011;61084;55.816;37.036;2023-09-18T13:06:31;4.32;;;3.00;;
72797;SDS011;61084;55.816;37.036;2023-09-18T13:09:16;4.40;;;3.20;;
72797;SDS011;61084;55.816;37.036;2023-09-18T13:11:57;4.07;;;3.10;;
72797;SDS011;61084;55.816;37.036;2023-09-18T13:14:24;3.55;;;2.60;;
72797;SDS011;61084;55.816;37.036;2023-09-18T13:16:50;3.78;;;3.00;;
72797;SDS011;61084;55.816;37.036;2023-09-18T13:19:17;6.53;;;2.70;;
72797;SDS011;61084;55.816;37.036;2023-09-18T13:21:49;4.63;;;3.13;;
72797;SDS011;61084;55.816;37.036;2023-09-18T13:24:25;6.15;;;3.50;;
72797;SDS011;61084;55.816;37.036;2023-09-18T13:26:52;4.60;;;3.33;;
72797;SDS011;61084;55.816;37.036;2023-09-18T13:29:23;4.18;;;3.35;;
72797;SDS011;61084;55.816;37.036;2023-09-18T13:31:49;7.03;;;3.90;;
72797;SDS011;61084;55.816;37.036;2023-09-18T13:34:16;5.57;;;3.90;;
72797;SDS011;61084;55.816;37.036;2023-09-18T13:36:44;9.38;;;4.30;;
72797;SDS011;61084;55.816;37.036;2023-09-18T13:39:11;5.22;;;4.30;;
72797;SDS011;61084;55.816;37.036;2023-09-18T13:41:39;4.10;;;3.65;;
72797;SDS011;61084;55.816;37.036;2023-09-18T13:44:09;5.50;;;3.88;;
72797;SDS011;61084;55.816;37.036;2023-09-18T13:46:36;4.95;;;3.90;;
72797;SDS011;61084;55.816;37.036;2023-09-18T13:49:03;5.60;;;3.90;;
72797;SDS011;61084;55.816;37.036;2023-09-18T13:51:30;6.05;;;4.63;;
72797;SDS011;61084;55.816;37.036;2023-09-18T13:53:58;7.43;;;4.75;;
72797;SDS011;61084;55.816;37.036;2023-09-18T13:56:24;4.82;;;3.72;;
72797;SDS011;61084;55.816;37.036;2023-09-18T13:58:55;4.20;;;3.35;;
72797;SDS011;61084;55.816;37.036;2023-09-18T14:01:22;5.75;;;4.05;;
72797;SDS011;61084;55.816;37.036;2023-09-18T14:03:51;5.20;;;4.05;;
72797;SDS011;61084;55.816;37.036;2023-09-18T14:06:17;6.53;;;3.65;;
72797;SDS011;61084;55.816;37.036;2023-09-18T14:08:46;7.25;;;3.60;;
72797;SDS011;61084;55.816;37.036;2023-09-18T14:11:11;5.68;;;3.92;;
72797;SDS011;61084;55.816;37.036;2023-09-18T14:13:38;4.65;;;3.45;;
72797;SDS011;61084;55.816;37.036;2023-09-18T14:16:04;8.32;;;5.38;;
72797;SDS011;61084;55.816;37.036;2023-09-18T14:18:31;5.18;;;4.00;;
72797;SDS011;61084;55.816;37.036;2023-09-18T14:20:57;5.72;;;4.18;;
72797;SDS011;61084;55.816;37.036;2023-09-18T14:23:23;5.03;;;4.18;;
72797;SDS011;61084;55.816;37.036;2023-09-18T14:25:52;5.55;;;3.83;;
72797;SDS011;61084;55.816;37.036;2023-09-18T14:28:18;7.95;;;4.07;;
72797;SDS011;61084;55.816;37.036;2023-09-18T14:30:43;7.95;;;5.15;;
72797;SDS011;61084;55.816;37.036;2023-09-18T14:33:09;5.13;;;3.60;;
72797;SDS011;61084;55.816;37.036;2023-09-18T14:35:36;5.38;;;4.05;;
72797;SDS011;61084;55.816;37.036;2023-09-18T14:38:02;7.43;;;4.53;;
72797;SDS011;61084;55.816;37.036;2023-09-18T14:40:31;7.57;;;4.60;;
72797;SDS011;61084;55.816;37.036;2023-09-18T14:42:57;7.63;;;4.88;;
72797;SDS011;61084;55.816;37.036;2023-09-18T14:45:23;5.57;;;4.00;;
72797;SDS011;61084;55.816;37.036;2023-09-18T14:47:50;7.45;;;5.57;;
72797;SDS011;61084;55.816;37.036;2023-09-18T14:50:16;8.68;;;5.88;;
72797;SDS011;61084;55.816;37.036;2023-09-18T14:52:42;11.60;;;6.57;;
72797;SDS011;61084;55.816;37.036;2023-09-18T14:55:08;8.38;;;5.40;;
72797;SDS011;61084;55.816;37.036;2023-09-18T14:57:33;10.38;;;6.68;;
72797;SDS011;61084;55.816;37.036;2023-09-18T14:59:59;17.05;;;11.82;;
72797;SDS011;61084;55.816;37.036;2023-09-18T15:02:25;37.95;;;21.67;;
72797;SDS011;61084;55.816;37.036;2023-09-18T15:04:57;219.85;;;118.20;;
72797;SDS011;61084;55.816;37.036;2023-09-18T15:07:24;174.82;;;87.18;;
72797;SDS011;61084;55.816;37.036;2023-09-18T15:09:50;236.70;;;122.18;;
72797;SDS011;61084;55.816;37.036;2023-09-18T15:12:16;228.93;;;119.72;;
72797;SDS011;61084;55.816;37.036;2023-09-18T15:14:42;116.95;;;55.33;;
72797;SDS011;61084;55.816;37.036;2023-09-18T15:17:08;74.38;;;39.83;;